Time;durP1;ratioP1;P1;durP2;ratioP2;P2;SDS_P1;SDS_P2;PMS_P1;PMS_P2;Temp;Humidity;BMP_temperature;BMP_pressure;BME280_temperature;BME280_humidity;BME280_pressure;Samples;Min_cycle;Max_cycle;Signal;HPM_P1;HPM_P2
2023/07/06 00:00:12;;;;;;;;;;;15.50;99.90;;;;;;4983004;28;20017;-72
2023/07/06 00:02:46;;;;;;;;;;;15.50;99.90;;;;;;4967993;28;20061;-72
2023/07/06 00:05:12;;;;;;;;;;;15.50;99.90;;;;;;4998074;28;20044;-71
2023/07/06 00:07:54;;;;;;;;;;;15.50;99.90;;;;;;4944717;28;20022;-71
2023/07/06 00:10:44;;;;;;;;;;;15.50;99.90;;;;;;4926103;29;19926;-71
2023/07/06 00:13:16;;;;;;;;;;;15.50;99.90;;;;;;4925645;29;20009;-71
2023/07/06 00:15:49;;;;;;;;;;;15.50;99.90;;;;;;4939755;28;20379;-74
2023/07/06 00:18:25;;;;;;;;;;;15.50;99.90;;;;;;4961870;28;20060;-72
2023/07/06 00:21:09;;;;;;;;;;;15.50;99.90;;;;;;4963765;28;19987;-72
2023/07/06 00:23:35;;;;;;;;;;;15.50;99.90;;;;;;4961383;28;20028;-74
2023/07/06 00:26:05;;;;;;;;;;;15.50;99.90;;;;;;4964470;28;19930;-71
2023/07/06 00:28:35;;;;;;;;;;;15.50;99.90;;;;;;4946860;28;20055;-70
2023/07/06 00:31:20;;;;;;;;;;;15.50;99.90;;;;;;4977097;28;20438;-71
2023/07/06 00:34:07;;;;;;;;;;;15.50;99.90;;;;;;4960091;28;19929;-72
2023/07/06 00:36:58;;;;;;;;;;;15.40;99.90;;;;;;4959398;28;19928;-74
2023/07/06 00:39:44;;;;;;;;;;;15.40;99.90;;;;;;5004623;28;19920;-71
2023/07/06 00:42:16;;;;;;;;;;;15.40;99.90;;;;;;5029235;28;19938;-73
2023/07/06 00:45:04;;;;;;;;;;;15.50;99.90;;;;;;5034526;28;19980;-71
2023/07/06 00:47:39;;;;;;;;;;;15.40;99.90;;;;;;5034557;28;20406;-70
2023/07/06 00:50:07;;;;;;;;;;;15.40;99.90;;;;;;5018664;28;20463;-71
2023/07/06 00:53:03;;;;;;;;;;;15.40;99.90;;;;;;5018255;28;20789;-73
2023/07/06 00:55:41;;;;;;;;;;;15.40;99.90;;;;;;5019728;28;19921;-72
2023/07/06 00:58:42;;;;;;;;;;;15.40;99.90;;;;;;5037222;28;20059;-71
2023/07/06 01:01:15;;;;;;;;;;;15.40;99.90;;;;;;5016693;28;19935;-74
2023/07/06 01:04:08;;;;;;;;;;;15.50;99.90;;;;;;5035109;28;20383;-74
2023/07/06 01:06:42;;;;;;;;;;;15.50;99.90;;;;;;5047606;28;19948;-72
2023/07/06 01:09:17;;;;;;;;;;;15.50;99.90;;;;;;5036093;28;19979;-73
2023/07/06 01:12:02;;;;;;;;;;;15.50;99.90;;;;;;4997895;28;19921;-73
2023/07/06 01:14:42;;;;;;;;;;;16.70;99.90;;;;;;4968208;28;19932;-73
2023/07/06 01:17:21;;;;;;;;;;;15.50;99.90;;;;;;4997399;28;20492;-71
2023/07/06 01:20:34;;;;;;;;;;;15.50;99.90;;;;;;4997257;28;20613;-73
2023/07/06 01:23:26;;;;;;;;;;;15.60;99.90;;;;;;4999102;28;21559;-74
2023/07/06 01:32:14;;;;;;;;;;;15.50;99.90;;;;;;4998017;28;20068;-71
2023/07/06 01:34:48;;;;;;;;;;;15.50;99.90;;;;;;4993687;28;21752;-71
2023/07/06 01:37:22;;;;;;;;;;;15.40;99.90;;;;;;4998341;28;20729;-72
2023/07/06 01:40:25;;;;;;;;;;;15.40;99.90;;;;;;4984569;28;19925;-75
2023/07/06 01:42:59;;;;;;;;;;;15.40;99.90;;;;;;5010754;28;19925;-72
2023/07/06 01:45:35;;;;;;;;;;;15.40;99.90;;;;;;5033294;28;19932;-73
2023/07/06 01:48:24;;;;;;;;;;;15.30;99.90;;;;;;5017456;28;20090;-71
2023/07/06 01:51:30;;;;;;;;;;;15.30;99.90;;;;;;5036027;28;20262;-72
2023/07/06 01:54:13;;;;;;;;;;;15.30;99.90;;;;;;5011367;28;19967;-73
2023/07/06 01:56:57;;;;;;;;;;;15.30;99.90;;;;;;4986779;28;20564;-73
2023/07/06 01:59:26;;;;;;;;;;;15.20;99.90;;;;;;5011120;28;19948;-72
2023/07/06 02:02:02;;;;;;;;;;;15.20;99.90;;;;;;4999289;28;19936;-74
2023/07/06 02:04:44;;;;;;;;;;;15.20;99.90;;;;;;4998805;28;19936;-70
2023/07/06 02:07:28;;;;;;;;;;;15.10;99.90;;;;;;4996433;28;20390;-70
2023/07/06 02:09:58;;;;;;;;;;;15.10;99.90;;;;;;5013055;28;20347;-70
2023/07/06 02:12:24;;;;;;;;;;;15.10;99.90;;;;;;5011483;28;20314;-73
2023/07/06 02:14:57;;;;;;;;;;;15.00;99.90;;;;;;4994653;28;19932;-70
2023/07/06 02:17:32;;;;;;;;;;;15.00;99.90;;;;;;4995148;28;20467;-71
2023/07/06 02:20:05;;;;;;;;;;;15.00;99.90;;;;;;4999237;28;19925;-71
2023/07/06 02:22:46;;;;;;;;;;;15.00;99.90;;;;;;4997240;28;19928;-71
2023/07/06 02:25:20;;;;;;;;;;;14.90;99.90;;;;;;4996293;28;19943;-71
2023/07/06 02:27:55;;;;;;;;;;;14.90;99.90;;;;;;5013620;28;20517;-74
2023/07/06 02:30:40;;;;;;;;;;;15.00;99.90;;;;;;4996341;28;19921;-71
2023/07/06 02:33:14;;;;;;;;;;;15.00;99.90;;;;;;4996837;28;19964;-72
2023/07/06 02:35:46;;;;;;;;;;;15.00;99.90;;;;;;4945899;28;20706;-70
2023/07/06 02:38:30;;;;;;;;;;;15.00;99.90;;;;;;4993077;28;19925;-71
2023/07/06 02:40:57;;;;;;;;;;;15.00;99.90;;;;;;4994206;28;19922;-71
2023/07/06 02:43:45;;;;;;;;;;;15.00;99.90;;;;;;5000489;28;19921;-73
2023/07/06 02:46:45;;;;;;;;;;;15.00;99.90;;;;;;5013357;28;19932;-70
2023/07/06 02:49:17;;;;;;;;;;;15.10;99.90;;;;;;5019624;28;19929;-72
2023/07/06 02:51:49;;;;;;;;;;;15.10;99.90;;;;;;4997635;28;20529;-71
2023/07/06 02:54:44;;;;;;;;;;;15.20;99.90;;;;;;5000673;28;20832;-72
2023/07/06 02:57:39;;;;;;;;;;;16.20;99.90;;;;;;5009763;28;21595;-72
2023/07/06 03:00:23;;;;;;;;;;;15.20;99.90;;;;;;4970027;28;19921;-72
2023/07/06 03:03:11;;;;;;;;;;;15.20;99.90;;;;;;5034132;28;19931;-72
2023/07/06 03:05:50;;;;;;;;;;;15.30;99.90;;;;;;5035232;28;19932;-71
2023/07/06 03:08:15;;;;;;;;;;;15.30;99.90;;;;;;5035253;28;19931;-71
2023/07/06 03:10:53;;;;;;;;;;;15.30;99.90;;;;;;5018390;28;19925;-72
2023/07/06 03:14:05;;;;;;;;;;;15.30;99.90;;;;;;5035223;28;20329;-72
2023/07/06 03:16:55;;;;;;;;;;;15.30;99.90;;;;;;5033818;28;19928;-71
2023/07/06 03:19:26;;;;;;;;;;;15.30;99.90;;;;;;5019629;28;19928;-71
2023/07/06 03:22:01;;;;;;;;;;;15.30;99.90;;;;;;5017883;28;19928;-71
2023/07/06 03:24:30;;;;;;;;;;;15.30;99.90;;;;;;5033356;28;19968;-72
2023/07/06 03:26:57;;;;;;;;;;;15.30;99.90;;;;;;4976132;28;19961;-72
2023/07/06 03:29:30;;;;;;;;;;;15.30;99.90;;;;;;4930300;29;19974;-74
2023/07/06 03:31:56;;;;;;;;;;;15.30;99.90;;;;;;4954785;28;19923;-70
2023/07/06 03:34:29;;;;;;;;;;;15.30;99.90;;;;;;4936879;28;19937;-72
2023/07/06 03:37:04;;;;;;;;;;;15.30;99.90;;;;;;4923986;28;19961;-72
2023/07/06 03:39:38;;;;;;;;;;;15.30;99.90;;;;;;4952248;28;19970;-70
2023/07/06 03:42:26;;;;;;;;;;;15.30;99.90;;;;;;4922292;28;19933;-72
2023/07/06 03:45:05;;;;;;;;;;;15.30;99.90;;;;;;4919691;29;19970;-72
2023/07/06 03:47:50;;;;;;;;;;;15.30;99.90;;;;;;4916794;29;20451;-72
2023/07/06 03:50:34;;;;;;;;;;;15.30;99.90;;;;;;4903197;29;19974;-74
2023/07/06 03:53:20;;;;;;;;;;;15.30;99.90;;;;;;4900709;29;20357;-72
2023/07/06 03:55:52;;;;;;;;;;;15.30;99.90;;;;;;4906109;29;19931;-70
2023/07/06 03:58:29;;;;;;;;;;;15.30;99.90;;;;;;4915686;29;20467;-71
2023/07/06 04:00:58;;;;;;;;;;;15.30;99.90;;;;;;4902433;29;20452;-70
2023/07/06 04:03:45;;;;;;;;;;;15.20;99.90;;;;;;4935652;28;19927;-72
2023/07/06 04:10:14;;;;;;;;;;;15.20;99.90;;;;;;5011679;28;20035;-73
2023/07/06 04:12:58;;;;;;;;;;;15.20;99.90;;;;;;5020627;28;19923;-74
2023/07/06 04:15:55;;;;;;;;;;;15.20;99.90;;;;;;4989658;28;19929;-75
2023/07/06 04:18:31;;;;;;;;;;;15.20;99.90;;;;;;5032214;28;19952;-73
2023/07/06 04:21:08;;;;;;;;;;;15.10;99.90;;;;;;5017851;28;19936;-71
2023/07/06 04:23:42;;;;;;;;;;;15.10;99.90;;;;;;5035180;28;19925;-73
2023/07/06 04:26:18;;;;;;;;;;;15.10;99.90;;;;;;4975316;28;20928;-73
2023/07/06 04:28:44;;;;;;;;;;;15.10;99.90;;;;;;4975942;28;19926;-75
2023/07/06 04:31:46;;;;;;;;;;;15.10;99.90;;;;;;4980796;28;19925;-73
2023/07/06 04:34:24;;;;;;;;;;;15.20;99.90;;;;;;4991037;28;19948;-73
2023/07/06 04:37:03;;;;;;;;;;;15.20;99.90;;;;;;4963749;28;19972;-74
2023/07/06 04:39:38;;;;;;;;;;;15.20;99.90;;;;;;4992264;28;20003;-74
2023/07/06 04:42:09;;;;;;;;;;;15.20;99.90;;;;;;4992584;28;19925;-76
2023/07/06 04:45:03;;;;;;;;;;;15.80;99.90;;;;;;4995066;28;19933;-72
2023/07/06 04:48:10;;;;;;;;;;;15.30;99.90;;;;;;4990050;28;19960;-72
2023/07/06 04:53:58;;;;;;;;;;;15.40;99.90;;;;;;4981668;28;19930;-72
2023/07/06 04:56:24;;;;;;;;;;;15.40;99.90;;;;;;4988272;28;20019;-70
2023/07/06 04:58:56;;;;;;;;;;;15.40;99.90;;;;;;5037035;28;20046;-71
2023/07/06 05:01:39;;;;;;;;;;;15.50;99.90;;;;;;5026535;28;19924;-69
2023/07/06 05:04:20;;;;;;;;;;;15.50;99.90;;;;;;5036920;28;19927;-71
2023/07/06 05:06:47;;;;;;;;;;;15.60;99.90;;;;;;5008989;28;20294;-69
2023/07/06 05:09:12;;;;;;;;;;;15.60;99.90;;;;;;5034809;28;20015;-69
2023/07/06 05:11:39;;;;;;;;;;;15.60;99.90;;;;;;5017533;28;20028;-72
2023/07/06 05:14:10;;;;;;;;;;;15.70;99.90;;;;;;5005086;28;19932;-69
2023/07/06 05:16:36;;;;;;;;;;;15.70;99.90;;;;;;5019578;28;19925;-70
2023/07/06 05:19:05;;;;;;;;;;;15.80;99.90;;;;;;5000638;28;19924;-70
2023/07/06 05:21:38;;;;;;;;;;;15.80;99.90;;;;;;5022200;28;20001;-70
2023/07/06 05:24:03;;;;;;;;;;;15.90;99.90;;;;;;5003257;28;19924;-68
2023/07/06 05:26:32;;;;;;;;;;;15.90;99.90;;;;;;5035884;28;19932;-69
2023/07/06 05:29:04;;;;;;;;;;;16.00;99.90;;;;;;5035629;28;19925;-72
2023/07/06 05:31:48;;;;;;;;;;;16.00;99.90;;;;;;5020004;28;19928;-70
2023/07/06 05:34:21;;;;;;;;;;;16.10;99.90;;;;;;5017262;28;20020;-70
2023/07/06 05:36:47;;;;;;;;;;;16.10;99.90;;;;;;5032480;28;19929;-71
2023/07/06 05:39:12;;;;;;;;;;;16.20;99.90;;;;;;5005247;28;19924;-70
2023/07/06 05:41:38;;;;;;;;;;;16.30;99.90;;;;;;4988914;28;19960;-72
2023/07/06 05:44:04;;;;;;;;;;;16.30;99.90;;;;;;5006220;28;19951;-70
2023/07/06 05:46:30;;;;;;;;;;;16.30;99.90;;;;;;5029703;28;19935;-70
2023/07/06 05:48:56;;;;;;;;;;;16.50;99.90;;;;;;5000820;28;19925;-70
2023/07/06 05:51:25;;;;;;;;;;;16.50;99.90;;;;;;5017535;28;20462;-71
2023/07/06 05:53:51;;;;;;;;;;;16.60;99.90;;;;;;5018912;28;19931;-69
2023/07/06 05:56:23;;;;;;;;;;;16.60;99.90;;;;;;5021473;28;19928;-69
2023/07/06 05:58:49;;;;;;;;;;;16.70;99.90;;;;;;5049924;28;19921;-70
2023/07/06 06:01:17;;;;;;;;;;;16.80;99.90;;;;;;5024956;28;19989;-69
2023/07/06 06:03:43;;;;;;;;;;;16.90;99.90;;;;;;5018466;28;20370;-69
2023/07/06 06:06:10;;;;;;;;;;;17.00;99.90;;;;;;5037548;28;19951;-69
2023/07/06 06:08:36;;;;;;;;;;;17.10;99.90;;;;;;5035228;28;19936;-70
2023/07/06 06:11:06;;;;;;;;;;;17.20;99.90;;;;;;5038046;28;20291;-69
2023/07/06 06:13:32;;;;;;;;;;;16.50;99.90;;;;;;5007179;28;20412;-70
2023/07/06 06:15:58;;;;;;;;;;;17.30;99.90;;;;;;5024757;28;19974;-70
2023/07/06 06:18:25;;;;;;;;;;;17.40;99.90;;;;;;5039498;28;19968;-69
2023/07/06 06:20:58;;;;;;;;;;;17.50;99.90;;;;;;5026056;28;19964;-72
2023/07/06 06:23:27;;;;;;;;;;;17.50;99.90;;;;;;5003686;28;20031;-75
2023/07/06 06:25:58;;;;;;;;;;;17.60;99.90;;;;;;5018009;28;19974;-72
2023/07/06 06:28:25;;;;;;;;;;;17.70;99.90;;;;;;5035502;28;19968;-71
2023/07/06 06:30:53;;;;;;;;;;;17.80;99.90;;;;;;5022032;28;19924;-74
2023/07/06 06:33:19;;;;;;;;;;;17.90;99.90;;;;;;5032882;28;19924;-72
2023/07/06 06:35:45;;;;;;;;;;;18.00;99.90;;;;;;5000252;28;20015;-72
2023/07/06 06:38:14;;;;;;;;;;;18.00;99.90;;;;;;4987787;28;19943;-73
2023/07/06 06:40:40;;;;;;;;;;;18.10;99.90;;;;;;4960741;28;19926;-72
2023/07/06 06:43:10;;;;;;;;;;;18.10;99.90;;;;;;4973008;28;19922;-72
2023/07/06 06:45:36;;;;;;;;;;;18.30;99.90;;;;;;4959864;28;20000;-75
2023/07/06 06:48:20;;;;;;;;;;;18.40;99.90;;;;;;4968673;28;20012;-73
2023/07/06 06:54:51;;;;;;;;;;;18.60;99.90;;;;;;4969573;28;20356;-73
2023/07/06 06:57:38;;;;;;;;;;;18.70;99.90;;;;;;4967795;28;19930;-73
2023/07/06 07:00:09;;;;;;;;;;;18.80;99.90;;;;;;4973586;28;20008;-71
2023/07/06 07:02:44;;;;;;;;;;;18.80;99.90;;;;;;4971640;28;19925;-73
2023/07/06 07:05:25;;;;;;;;;;;18.80;99.90;;;;;;4969763;28;19922;-72
2023/07/06 07:08:06;;;;;;;;;;;18.90;99.90;;;;;;4975050;28;19942;-71
2023/07/06 07:10:42;;;;;;;;;;;18.90;99.90;;;;;;5051998;28;19924;-71
2023/07/06 07:13:15;;;;;;;;;;;19.00;99.90;;;;;;5019581;28;19931;-72
2023/07/06 07:15:47;;;;;;;;;;;19.10;99.90;;;;;;5014795;28;19924;-71
2023/07/06 07:18:16;;;;;;;;;;;19.30;99.90;;;;;;5033381;28;19927;-71
2023/07/06 07:20:54;;;;;;;;;;;18.60;99.90;;;;;;5040225;28;19928;-73
2023/07/06 07:23:23;;;;;;;;;;;19.60;99.90;;;;;;5014776;28;19925;-74
2023/07/06 07:25:53;;;;;;;;;;;19.70;99.90;;;;;;5037118;28;19920;-73
2023/07/06 07:28:19;;;;;;;;;;;19.80;99.90;;;;;;5030810;28;19929;-74
2023/07/06 07:31:11;;;;;;;;;;;19.90;99.90;;;;;;5000635;28;20012;-72
2023/07/06 07:34:10;;;;;;;;;;;20.00;99.90;;;;;;4977613;28;19921;-73
2023/07/06 07:36:54;;;;;;;;;;;20.00;99.90;;;;;;4992976;28;20533;-71
2023/07/06 07:39:33;;;;;;;;;;;20.00;99.90;;;;;;4960315;28;20324;-74
2023/07/06 07:45:18;;;;;;;;;;;20.20;99.90;;;;;;4962988;28;20529;-72
2023/07/06 07:47:46;;;;;;;;;;;20.40;99.90;;;;;;4952137;28;19930;-73
2023/07/06 07:50:41;;;;;;;;;;;20.50;99.90;;;;;;4950250;28;20403;-71
2023/07/06 07:53:25;;;;;;;;;;;20.60;99.90;;;;;;4961762;28;20008;-72
2023/07/06 07:56:06;;;;;;;;;;;20.50;99.90;;;;;;4962951;28;19956;-72
2023/07/06 07:58:33;;;;;;;;;;;20.70;99.90;;;;;;4936607;28;19925;-72
2023/07/06 08:01:00;;;;;;;;;;;20.70;99.90;;;;;;4947792;28;19926;-71
2023/07/06 08:03:27;;;;;;;;;;;20.70;99.90;;;;;;4946141;28;19929;-73
2023/07/06 08:05:53;;;;;;;;;;;21.00;99.90;;;;;;4976966;28;19940;-74
2023/07/06 08:08:22;;;;;;;;;;;21.00;99.90;;;;;;4998947;28;19963;-74
2023/07/06 08:10:47;;;;;;;;;;;21.00;99.90;;;;;;5001624;28;19929;-73
2023/07/06 08:13:13;;;;;;;;;;;20.90;99.90;;;;;;5011845;28;19947;-72
2023/07/06 08:15:39;;;;;;;;;;;20.80;99.90;;;;;;4994121;28;20072;-73
2023/07/06 08:18:09;;;;;;;;;;;20.90;99.90;;;;;;4976830;28;20371;-72
2023/07/06 08:20:34;;;;;;;;;;;20.90;99.90;;;;;;5023020;28;19924;-73
2023/07/06 08:23:01;;;;;;;;;;;20.90;99.90;;;;;;5020256;28;19928;-72
2023/07/06 08:25:28;;;;;;;;;;;20.90;99.90;;;;;;5006131;28;19991;-74
2023/07/06 08:27:54;;;;;;;;;;;20.80;99.90;;;;;;5020184;28;19924;-73
2023/07/06 08:30:21;;;;;;;;;;;20.80;99.90;;;;;;5023023;28;19925;-72
2023/07/06 08:32:50;;;;;;;;;;;20.70;99.90;;;;;;5051572;28;20006;-75
2023/07/06 08:35:17;;;;;;;;;;;20.70;99.90;;;;;;5024878;28;19928;-73
2023/07/06 08:37:43;;;;;;;;;;;20.80;99.90;;;;;;5038852;28;20031;-71
2023/07/06 08:40:28;;;;;;;;;;;20.90;99.90;;;;;;5051273;28;19943;-73
2023/07/06 08:43:27;;;;;;;;;;;20.90;99.90;;;;;;5009634;28;20157;-74
2023/07/06 08:46:20;;;;;;;;;;;20.80;99.90;;;;;;4959752;28;19922;-73
2023/07/06 08:49:23;;;;;;;;;;;20.80;99.90;;;;;;4960006;28;19987;-72
2023/07/06 08:52:08;;;;;;;;;;;20.70;99.90;;;;;;4948401;28;20459;-72
2023/07/06 08:54:39;;;;;;;;;;;20.70;99.90;;;;;;4959859;28;19933;-72
2023/07/06 08:57:34;;;;;;;;;;;20.70;99.90;;;;;;4960801;28;19922;-72
2023/07/06 09:00:46;;;;;;;;;;;20.40;99.90;;;;;;4961017;28;19932;-72
2023/07/06 09:03:33;;;;;;;;;;;20.80;99.90;;;;;;4941360;28;19922;-73
2023/07/06 09:06:23;;;;;;;;;;;21.00;99.90;;;;;;4904154;29;19975;-74
2023/07/06 09:09:09;;;;;;;;;;;20.90;99.90;;;;;;4904777;29;19966;-73
2023/07/06 09:11:48;;;;;;;;;;;20.80;99.90;;;;;;4910187;29;20002;-73
2023/07/06 09:17:35;;;;;;;;;;;20.90;99.90;;;;;;4956696;28;19933;-72
2023/07/06 09:20:26;;;;;;;;;;;21.10;99.90;;;;;;4966947;28;19930;-72
2023/07/06 09:23:08;;;;;;;;;;;21.20;99.90;;;;;;4966907;28;20471;-72
2023/07/06 09:26:12;;;;;;;;;;;21.40;99.90;;;;;;4928777;29;19927;-72
2023/07/06 09:29:23;;;;;;;;;;;21.30;99.90;;;;;;4927255;29;19965;-73
2023/07/06 09:32:09;;;;;;;;;;;21.30;99.90;;;;;;4933486;28;19930;-73
2023/07/06 09:35:08;;;;;;;;;;;21.30;99.90;;;;;;4949071;28;20571;-73
2023/07/06 09:37:48;;;;;;;;;;;21.60;99.90;;;;;;4947497;29;19937;-72
2023/07/06 09:40:35;;;;;;;;;;;21.90;99.90;;;;;;4959313;28;19926;-72
2023/07/06 09:43:18;;;;;;;;;;;22.20;99.90;;;;;;4950077;28;19930;-72
2023/07/06 09:49:17;;;;;;;;;;;22.50;99.90;;;;;;4974779;28;19956;-73
2023/07/06 09:52:04;;;;;;;;;;;22.60;99.90;;;;;;4973671;28;19941;-73
2023/07/06 09:54:59;;;;;;;;;;;22.80;99.90;;;;;;4975559;28;19922;-72
2023/07/06 09:57:35;;;;;;;;;;;22.90;99.90;;;;;;5006954;28;19948;-73
2023/07/06 10:00:52;;;;;;;;;;;23.10;99.90;;;;;;5012627;28;19921;-74
2023/07/06 10:03:49;;;;;;;;;;;23.40;99.90;;;;;;4982052;28;20948;-72
2023/07/06 10:07:06;;;;;;;;;;;23.50;99.90;;;;;;5013472;28;20011;-72
2023/07/06 10:10:14;;;;;;;;;;;23.50;99.90;;;;;;5017975;28;19982;-71
2023/07/06 10:12:58;;;;;;;;;;;23.40;99.90;;;;;;5037124;28;19939;-72
2023/07/06 10:15:57;;;;;;;;;;;23.60;99.90;;;;;;5039871;28;20274;-73
2023/07/06 10:18:32;;;;;;;;;;;23.50;99.90;;;;;;4986061;28;19992;-73
2023/07/06 10:21:36;;;;;;;;;;;23.40;99.90;;;;;;5036327;28;20063;-73
2023/07/06 10:24:24;;;;;;;;;;;23.50;99.90;;;;;;5003558;28;19924;-73
2023/07/06 10:26:59;;;;;;;;;;;23.70;99.90;;;;;;5042719;28;20414;-73
2023/07/06 10:29:41;;;;;;;;;;;23.70;99.90;;;;;;5054457;28;19960;-73
2023/07/06 10:32:27;;;;;;;;;;;23.60;99.90;;;;;;4961315;28;19933;-73
2023/07/06 10:35:34;;;;;;;;;;;23.60;99.90;;;;;;4947334;29;19953;-73
2023/07/06 10:38:20;;;;;;;;;;;23.70;99.90;;;;;;4959762;28;20292;-72
2023/07/06 10:41:12;;;;;;;;;;;24.00;99.90;;;;;;4944494;29;19929;-75
2023/07/06 10:44:02;;;;;;;;;;;24.20;99.90;;;;;;4947213;29;19964;-72
2023/07/06 10:47:05;;;;;;;;;;;24.40;99.90;;;;;;4932647;29;19929;-74
2023/07/06 10:50:26;;;;;;;;;;;24.40;99.90;;;;;;4995357;28;20030;-73
2023/07/06 10:53:29;;;;;;;;;;;24.30;99.90;;;;;;5024691;28;20290;-72
2023/07/06 10:56:40;;;;;;;;;;;24.20;99.90;;;;;;4985950;28;20495;-75
2023/07/06 11:02:37;;;;;;;;;;;24.20;99.90;;;;;;5016921;28;19921;-72
2023/07/06 11:05:45;;;;;;;;;;;24.30;99.90;;;;;;5004499;28;20012;-72
2023/07/06 11:08:45;;;;;;;;;;;24.40;99.90;;;;;;4979302;28;19972;-73
2023/07/06 11:11:20;;;;;;;;;;;24.50;99.90;;;;;;4978647;28;19926;-72
2023/07/06 11:14:16;;;;;;;;;;;24.50;99.90;;;;;;4944684;29;19940;-72
2023/07/06 11:17:04;;;;;;;;;;;24.50;99.90;;;;;;4915427;29;20018;-74
2023/07/06 11:20:13;;;;;;;;;;;24.40;99.90;;;;;;4916161;29;19918;-73
2023/07/06 11:23:04;;;;;;;;;;;24.50;99.90;;;;;;4913308;29;19962;-72
2023/07/06 11:26:16;;;;;;;;;;;24.50;99.90;;;;;;4892475;29;20034;-72
2023/07/06 11:29:08;;;;;;;;;;;24.40;99.90;;;;;;4945984;28;19929;-73
2023/07/06 11:35:33;;;;;;;;;;;24.30;99.90;;;;;;4983441;28;19949;-72
2023/07/06 11:38:32;;;;;;;;;;;24.20;99.90;;;;;;4983586;28;19921;-75
2023/07/06 11:41:44;;;;;;;;;;;23.80;99.90;;;;;;4982756;28;19922;-73
2023/07/06 11:44:39;;;;;;;;;;;23.60;99.90;;;;;;4951583;28;20009;-73
2023/07/06 11:47:41;;;;;;;;;;;23.60;99.90;;;;;;4945694;28;20025;-75
2023/07/06 11:50:19;;;;;;;;;;;23.70;99.90;;;;;;4980944;28;19972;-72
2023/07/06 11:53:32;;;;;;;;;;;23.90;99.90;;;;;;4964789;28;19925;-72
2023/07/06 11:59:52;;;;;;;;;;;24.10;99.90;;;;;;4983853;28;20398;-75
2023/07/06 12:02:43;;;;;;;;;;;24.20;99.90;;;;;;4967531;28;20006;-73
2023/07/06 12:08:27;;;;;;;;;;;24.30;99.90;;;;;;4964736;28;20024;-73
2023/07/06 12:11:30;;;;;;;;;;;24.30;99.90;;;;;;4963709;28;19957;-73
2023/07/06 12:14:22;;;;;;;;;;;24.20;99.90;;;;;;4964699;28;20022;-73
2023/07/06 12:17:29;;;;;;;;;;;24.30;99.90;;;;;;4937756;28;19918;-73
2023/07/06 12:20:18;;;;;;;;;;;24.00;99.90;;;;;;4939433;29;19961;-74
2023/07/06 12:25:50;;;;;;;;;;;24.20;99.90;;;;;;5002918;28;19925;-73
2023/07/06 12:28:38;;;;;;;;;;;24.20;99.90;;;;;;5005772;28;19937;-73
2023/07/06 12:31:26;;;;;;;;;;;24.20;99.90;;;;;;5004432;28;19932;-72
2023/07/06 12:34:52;;;;;;;;;;;24.00;99.90;;;;;;4982572;28;20060;-72
2023/07/06 12:38:03;;;;;;;;;;;23.80;99.90;;;;;;4967214;28;20042;-73
2023/07/06 12:41:10;;;;;;;;;;;23.80;99.90;;;;;;4999281;28;20016;-75
2023/07/06 12:43:55;;;;;;;;;;;24.00;99.90;;;;;;5025182;28;19920;-73
2023/07/06 12:46:33;;;;;;;;;;;23.70;99.90;;;;;;5024212;28;19928;-72
2023/07/06 12:49:26;;;;;;;;;;;23.60;99.90;;;;;;5026484;28;19919;-73
2023/07/06 12:52:15;;;;;;;;;;;23.70;99.90;;;;;;5024407;28;20419;-73
2023/07/06 12:58:37;;;;;;;;;;;23.70;99.90;;;;;;4991417;28;19928;-73
2023/07/06 13:01:35;;;;;;;;;;;23.90;99.90;;;;;;5024211;28;19925;-73
2023/07/06 13:05:05;;;;;;;;;;;23.80;99.90;;;;;;5024918;28;19929;-73
2023/07/06 13:08:20;;;;;;;;;;;23.80;99.90;;;;;;5025322;28;19932;-72
2023/07/06 13:11:21;;;;;;;;;;;23.70;99.90;;;;;;5047735;28;19930;-72
2023/07/06 13:14:03;;;;;;;;;;;23.70;99.90;;;;;;5049788;28;20250;-72
2023/07/06 13:16:42;;;;;;;;;;;23.90;99.90;;;;;;5041158;28;20327;-73
2023/07/06 13:19:41;;;;;;;;;;;23.80;99.90;;;;;;5002574;28;20451;-73
2023/07/06 13:22:27;;;;;;;;;;;23.80;99.90;;;;;;5027940;28;20329;-73
2023/07/06 13:25:25;;;;;;;;;;;24.20;99.90;;;;;;5009338;28;19928;-72
2023/07/06 13:28:15;;;;;;;;;;;23.60;99.90;;;;;;5057449;28;19935;-73
2023/07/06 13:31:32;;;;;;;;;;;23.80;99.90;;;;;;5054519;28;19931;-74
2023/07/06 13:34:14;;;;;;;;;;;23.70;99.90;;;;;;5039896;28;19935;-72
2023/07/06 13:36:58;;;;;;;;;;;23.70;99.90;;;;;;5031072;28;19979;-72
2023/07/06 13:40:23;;;;;;;;;;;23.40;99.90;;;;;;5055118;28;19927;-73
2023/07/06 13:43:13;;;;;;;;;;;23.10;99.90;;;;;;5043590;28;19970;-73
2023/07/06 13:45:58;;;;;;;;;;;23.10;99.90;;;;;;5056876;28;20341;-72
2023/07/06 13:48:37;;;;;;;;;;;23.30;99.90;;;;;;5039409;28;19927;-72
2023/07/06 13:51:49;;;;;;;;;;;23.30;99.90;;;;;;5023168;28;19924;-73
2023/07/06 13:54:34;;;;;;;;;;;23.40;99.90;;;;;;5040389;28;20058;-72
2023/07/06 13:57:29;;;;;;;;;;;23.30;99.90;;;;;;5045657;28;20005;-73
2023/07/06 14:00:12;;;;;;;;;;;23.40;99.90;;;;;;5041366;28;19935;-73
2023/07/06 14:02:49;;;;;;;;;;;23.20;99.90;;;;;;5056089;28;20018;-73
2023/07/06 14:05:37;;;;;;;;;;;23.30;99.90;;;;;;5057255;28;19970;-74
2023/07/06 14:08:40;;;;;;;;;;;23.40;99.90;;;;;;5055555;28;19932;-73
2023/07/06 14:15:30;;;;;;;;;;;23.40;99.90;;;;;;5012454;28;19967;-74
2023/07/06 14:18:44;;;;;;;;;;;23.40;99.90;;;;;;5055822;28;19955;-73
2023/07/06 14:21:53;;;;;;;;;;;23.40;99.90;;;;;;5039344;28;19974;-74
2023/07/06 14:24:46;;;;;;;;;;;23.20;99.90;;;;;;5040897;28;19963;-72
2023/07/06 14:27:17;;;;;;;;;;;23.00;99.90;;;;;;5015991;28;19928;-73
2023/07/06 14:33:08;;;;;;;;;;;22.70;99.90;;;;;;5015293;28;19925;-72
2023/07/06 14:36:01;;;;;;;;;;;22.80;99.90;;;;;;5015850;28;20365;-73
2023/07/06 14:38:41;;;;;;;;;;;22.90;99.90;;;;;;4986678;28;19929;-72
2023/07/06 14:41:25;;;;;;;;;;;22.80;99.90;;;;;;4995523;28;19932;-73
2023/07/06 14:44:13;;;;;;;;;;;22.80;99.90;;;;;;5004100;28;19946;-72
2023/07/06 14:47:02;;;;;;;;;;;22.90;99.90;;;;;;4998994;28;19928;-72
2023/07/06 14:49:44;;;;;;;;;;;22.90;99.90;;;;;;4972062;28;19948;-73
2023/07/06 14:52:24;;;;;;;;;;;23.00;99.90;;;;;;4960384;28;20341;-74
2023/07/06 14:58:10;;;;;;;;;;;23.10;99.90;;;;;;4983202;28;19941;-72
2023/07/06 15:00:47;;;;;;;;;;;23.20;99.90;;;;;;4954679;28;19933;-72
2023/07/06 15:03:18;;;;;;;;;;;23.30;99.90;;;;;;4980289;28;19929;-72
2023/07/06 15:06:15;;;;;;;;;;;23.20;99.90;;;;;;4997134;28;19932;-72
2023/07/06 15:09:04;;;;;;;;;;;23.30;99.90;;;;;;4982457;28;19917;-74
2023/07/06 15:11:32;;;;;;;;;;;22.90;99.60;;;;;;4994183;28;19933;-72
2023/07/06 15:14:26;;;;;;;;;;;23.10;99.80;;;;;;4983483;28;20769;-72
2023/07/06 15:17:20;;;;;;;;;;;23.10;99.80;;;;;;4996247;28;19925;-74
2023/07/06 15:20:06;;;;;;;;;;;23.00;99.90;;;;;;4994732;28;19920;-73
2023/07/06 15:22:34;;;;;;;;;;;23.00;99.90;;;;;;4981383;28;19964;-72
2023/07/06 15:25:22;;;;;;;;;;;22.90;99.90;;;;;;4995431;28;20016;-74
2023/07/06 15:28:11;;;;;;;;;;;22.60;99.60;;;;;;4995991;28;20422;-73
2023/07/06 15:34:02;;;;;;;;;;;22.50;99.90;;;;;;4996088;28;19968;-73
2023/07/06 15:36:29;;;;;;;;;;;22.60;99.90;;;;;;5006029;28;19933;-73
2023/07/06 15:39:19;;;;;;;;;;;22.50;99.90;;;;;;4973137;28;19925;-73
2023/07/06 15:42:09;;;;;;;;;;;22.30;99.90;;;;;;5001570;28;19972;-73
2023/07/06 15:45:06;;;;;;;;;;;22.10;99.90;;;;;;5010971;28;19920;-74
2023/07/06 15:51:13;;;;;;;;;;;22.30;99.90;;;;;;5019732;28;20221;-73
2023/07/06 15:54:02;;;;;;;;;;;22.20;99.90;;;;;;5036810;28;20406;-73
2023/07/06 15:57:11;;;;;;;;;;;23.10;99.90;;;;;;4958164;28;19945;-73
2023/07/06 16:00:01;;;;;;;;;;;21.80;99.90;;;;;;4948399;28;20022;-73
2023/07/06 16:03:01;;;;;;;;;;;21.60;99.90;;;;;;4959448;28;19929;-74
2023/07/06 16:05:52;;;;;;;;;;;21.50;99.90;;;;;;4918793;28;19937;-71
2023/07/06 16:08:44;;;;;;;;;;;21.50;99.90;;;;;;5002083;28;19924;-73
2023/07/06 16:11:39;;;;;;;;;;;21.20;99.90;;;;;;5027740;28;19920;-73
2023/07/06 16:14:23;;;;;;;;;;;21.10;99.90;;;;;;5041530;28;20032;-73
2023/07/06 16:16:56;;;;;;;;;;;21.90;99.90;;;;;;5021641;28;20401;-73
2023/07/06 16:22:51;;;;;;;;;;;21.10;99.90;;;;;;5041365;28;19947;-73
2023/07/06 16:25:39;;;;;;;;;;;21.30;99.90;;;;;;5054245;28;20023;-74
2023/07/06 16:28:43;;;;;;;;;;;21.20;99.90;;;;;;5051155;28;19931;-74
2023/07/06 16:31:11;;;;;;;;;;;21.10;99.90;;;;;;5055661;28;19929;-73
2023/07/06 16:33:51;;;;;;;;;;;21.10;99.90;;;;;;5025241;28;20019;-74
2023/07/06 16:40:21;;;;;;;;;;;21.10;99.90;;;;;;5041727;28;20379;-73
2023/07/06 16:43:09;;;;;;;;;;;21.20;99.90;;;;;;4995694;28;19948;-74
2023/07/06 16:45:55;;;;;;;;;;;21.20;99.90;;;;;;5028646;28;19975;-75
2023/07/06 16:48:45;;;;;;;;;;;21.10;99.90;;;;;;5041350;28;19935;-73
2023/07/06 16:52:01;;;;;;;;;;;20.90;99.90;;;;;;5041808;28;20432;-74
2023/07/06 16:54:35;;;;;;;;;;;20.70;99.90;;;;;;5036572;28;19929;-74
2023/07/06 16:57:26;;;;;;;;;;;20.70;99.90;;;;;;5012017;28;20510;-73